Time;durP1;ratioP1;P1;durP2;ratioP2;P2;SDS_P1;SDS_P2;PMS_P1;PMS_P2;Temp;Humidity;BMP_temperature;BMP_pressure;BME280_temperature;BME280_humidity;BME280_pressure;Samples;Min_cycle;Max_cycle;Signal;HPM_P1;HPM_P2
2022/09/05 00:01:02;;;;;;;0.10;0.10;;;;;;;;;;4133579;28;20528;-41
2022/09/05 00:03:26;;;;;;;0.10;0.10;;;;;;;;;;4146557;28;20058;-43
2022/09/05 00:05:39;;;;;;;0.10;0.10;;;;;;;;;;4147029;28;20096;-41
2022/09/05 00:07:59;;;;;;;0.10;0.10;;;;;;;;;;4147335;28;20064;-42
2022/09/05 00:10:07;;;;;;;0.10;0.10;;;;;;;;;;4148463;28;20592;-40
2022/09/05 00:12:10;;;;;;;0.10;0.10;;;;;;;;;;4148065;28;20058;-40
2022/09/05 00:14:27;;;;;;;0.08;0.08;;;;;;;;;;4148224;28;21045;-40
2022/09/05 00:16:53;;;;;;;0.10;0.10;;;;;;;;;;4130813;28;20410;-41
2022/09/05 00:19:10;;;;;;;0.10;0.10;;;;;;;;;;4146671;28;20124;-41
2022/09/05 00:21:40;;;;;;;0.10;0.10;;;;;;;;;;4131932;28;20058;-41
2022/09/05 00:24:18;;;;;;;0.20;0.17;;;;;;;;;;4131587;28;20554;-41
2022/09/05 00:26:40;;;;;;;0.10;0.10;;;;;;;;;;4140498;28;20065;-41
2022/09/05 00:29:01;;;;;;;0.10;0.10;;;;;;;;;;4130020;28;20062;-41
2022/09/05 00:31:14;;;;;;;0.10;0.10;;;;;;;;;;4130572;28;20113;-41
2022/09/05 00:33:30;;;;;;;0.35;0.20;;;;;;;;;;4146111;28;20084;-41
2022/09/05 00:36:01;;;;;;;0.10;0.10;;;;;;;;;;4130533;28;20054;-41
2022/09/05 00:38:13;;;;;;;0.10;0.10;;;;;;;;;;4129948;28;20054;-41
2022/09/05 00:40:21;;;;;;;0.20;0.10;;;;;;;;;;4130647;28;20158;-41
2022/09/05 00:42:23;;;;;;;0.10;0.10;;;;;;;;;;4130383;28;20124;-41
2022/09/05 00:44:30;;;;;;;0.10;0.10;;;;;;;;;;4130639;28;20071;-41
2022/09/05 00:46:35;;;;;;;0.10;0.10;;;;;;;;;;4130365;28;20595;-41
2022/09/05 00:49:08;;;;;;;0.10;0.10;;;;;;;;;;4131128;28;20482;-41
2022/09/05 00:51:31;;;;;;;0.20;0.10;;;;;;;;;;4146803;28;20042;-41
2022/09/05 00:54:10;;;;;;;0.10;0.10;;;;;;;;;;4146481;28;20191;-41
2022/09/05 00:56:40;;;;;;;0.05;0.05;;;;;;;;;;4146507;28;20544;-41
2022/09/05 00:58:55;;;;;;;0.10;0.10;;;;;;;;;;4147863;28;20054;-41
2022/09/05 01:00:57;;;;;;;0.10;0.10;;;;;;;;;;4146580;28;20104;-41
2022/09/05 01:03:01;;;;;;;0.10;0.10;;;;;;;;;;4145657;28;20054;-40
2022/09/05 01:05:09;;;;;;;0.03;0.03;;;;;;;;;;4147461;28;20504;-41
2022/09/05 01:07:28;;;;;;;0.10;0.10;;;;;;;;;;4146165;28;20100;-41
2022/09/05 01:09:30;;;;;;;;;;;;;;;;;;4148001;28;20081;-41
2022/09/05 01:11:57;;;;;;;0.20;0.20;;;;;;;;;;4147263;28;19964;-41
2022/09/05 01:14:24;;;;;;;0.10;0.10;;;;;;;;;;4155897;28;20107;-41
2022/09/05 01:16:35;;;;;;;0.10;0.10;;;;;;;;;;4147244;28;20552;-41
2022/09/05 01:19:04;;;;;;;0.20;0.20;;;;;;;;;;4145745;28;20057;-41
2022/09/05 01:21:26;;;;;;;0.10;0.10;;;;;;;;;;4147284;28;20568;-41
2022/09/05 01:23:33;;;;;;;0.13;0.10;;;;;;;;;;4147118;28;20501;-40
2022/09/05 01:26:16;;;;;;;0.05;0.05;;;;;;;;;;4147224;28;20506;-42
2022/09/05 01:28:45;;;;;;;0.10;0.10;;;;;;;;;;4146072;28;20440;-42
2022/09/05 01:30:52;;;;;;;0.10;0.10;;;;;;;;;;4145841;28;20061;-42
2022/09/05 01:33:02;;;;;;;0.98;0.10;;;;;;;;;;4146917;28;20529;-41
2022/09/05 01:35:31;;;;;;;0.20;0.10;;;;;;;;;;4147427;28;20112;-40
2022/09/05 01:37:38;;;;;;;0.10;0.10;;;;;;;;;;4146261;28;20057;-40
2022/09/05 01:39:49;;;;;;;0.13;0.13;;;;;;;;;;4147776;28;20144;-40
2022/09/05 01:42:07;;;;;;;0.45;0.20;;;;;;;;;;4147420;28;20050;-41
2022/09/05 01:44:28;;;;;;;0.00;0.00;;;;;;;;;;4147468;28;20084;-41
2022/09/05 01:46:35;;;;;;;0.20;0.10;;;;;;;;;;4146139;28;20049;-41
2022/09/05 01:49:06;;;;;;;0.38;0.10;;;;;;;;;;4146788;28;20061;-40
2022/09/05 01:51:49;;;;;;;0.17;0.13;;;;;;;;;;4147587;28;20065;-40
2022/09/05 01:53:57;;;;;;;0.20;0.20;;;;;;;;;;4147137;28;20050;-41
2022/09/05 01:56:10;;;;;;;0.20;0.10;;;;;;;;;;4147495;28;20058;-41
2022/09/05 01:58:11;;;;;;;0.20;0.20;;;;;;;;;;4146186;28;20054;-41
2022/09/05 02:00:28;;;;;;;0.10;0.10;;;;;;;;;;4146765;28;20104;-41
2022/09/05 02:02:43;;;;;;;0.20;0.13;;;;;;;;;;4128842;28;20065;-41
2022/09/05 02:05:03;;;;;;;0.20;0.20;;;;;;;;;;4145663;28;20604;-41
2022/09/05 02:07:55;;;;;;;0.10;0.10;;;;;;;;;;4146745;28;20061;-41
2022/09/05 02:10:27;;;;;;;0.10;0.10;;;;;;;;;;4139696;28;20104;-41
2022/09/05 02:12:43;;;;;;;0.10;0.10;;;;;;;;;;4129297;28;20057;-40
2022/09/05 02:14:54;;;;;;;0.20;0.20;;;;;;;;;;4129492;28;20077;-41
2022/09/05 02:17:06;;;;;;;0.20;0.10;;;;;;;;;;4113311;28;20074;-40
2022/09/05 02:19:11;;;;;;;0.10;0.10;;;;;;;;;;4129832;28;20062;-40
2022/09/05 02:21:30;;;;;;;0.10;0.10;;;;;;;;;;4146921;28;20119;-40
2022/09/05 02:23:37;;;;;;;0.10;0.00;;;;;;;;;;4145379;28;20057;-40
2022/09/05 02:25:44;;;;;;;0.30;0.10;;;;;;;;;;4145640;28;20108;-40
2022/09/05 02:28:00;;;;;;;0.17;0.17;;;;;;;;;;4145313;28;20445;-41
2022/09/05 02:30:14;;;;;;;0.10;0.10;;;;;;;;;;4145403;28;20054;-40
2022/09/05 02:32:31;;;;;;;0.10;0.10;;;;;;;;;;4146094;28;20466;-41
2022/09/05 02:34:41;;;;;;;0.10;0.10;;;;;;;;;;4146361;28;20490;-40
2022/09/05 02:36:44;;;;;;;0.28;0.20;;;;;;;;;;4146407;28;20050;-41
2022/09/05 02:38:53;;;;;;;0.10;0.10;;;;;;;;;;4146518;28;20058;-40
2022/09/05 02:40:57;;;;;;;0.25;0.15;;;;;;;;;;4146462;28;20065;-41
2022/09/05 02:43:23;;;;;;;0.10;0.10;;;;;;;;;;4149626;28;20046;-41
2022/09/05 02:45:51;;;;;;;0.15;0.10;;;;;;;;;;4149689;28;20120;-40
2022/09/05 02:48:15;;;;;;;0.20;0.20;;;;;;;;;;4147839;28;20092;-41
2022/09/05 02:50:39;;;;;;;0.20;0.00;;;;;;;;;;4148169;28;20050;-40
2022/09/05 02:52:41;;;;;;;0.10;0.10;;;;;;;;;;4148090;28;20054;-41
2022/09/05 02:54:43;;;;;;;0.10;0.10;;;;;;;;;;4132060;28;20054;-40
2022/09/05 02:56:53;;;;;;;0.50;0.20;;;;;;;;;;4149582;28;20085;-41
2022/09/05 02:59:44;;;;;;;0.10;0.10;;;;;;;;;;4149409;28;20061;-41
2022/09/05 03:01:54;;;;;;;0.20;0.20;;;;;;;;;;4147955;28;20112;-40
2022/09/05 03:04:04;;;;;;;;;;;;;;;;;;4149362;28;20054;-40
2022/09/05 03:06:19;;;;;;;0.10;0.10;;;;;;;;;;4149247;28;19921;-41
2022/09/05 03:08:43;;;;;;;0.20;0.20;;;;;;;;;;4146299;28;20112;-42
2022/09/05 03:11:13;;;;;;;0.25;0.17;;;;;;;;;;4148784;28;20136;-41
2022/09/05 03:13:33;;;;;;;0.30;0.20;;;;;;;;;;4149205;28;20080;-40
2022/09/05 03:15:53;;;;;;;;;;;;;;;;;;4149924;28;20069;-40
2022/09/05 03:18:03;;;;;;;0.20;0.20;;;;;;;;;;4147354;28;20325;-40
2022/09/05 03:20:37;;;;;;;0.10;0.10;;;;;;;;;;4148146;28;20057;-40
2022/09/05 03:23:16;;;;;;;0.10;0.10;;;;;;;;;;4164228;28;20108;-41
2022/09/05 03:25:37;;;;;;;0.10;0.10;;;;;;;;;;4148944;28;20088;-41
2022/09/05 03:28:02;;;;;;;0.20;0.20;;;;;;;;;;4147571;28;20077;-41
2022/09/05 03:30:19;;;;;;;0.10;0.10;;;;;;;;;;4148995;28;20100;-41
2022/09/05 03:32:58;;;;;;;0.10;0.10;;;;;;;;;;4148428;28;20078;-41
2022/09/05 03:35:18;;;;;;;0.17;0.17;;;;;;;;;;4147671;28;20061;-41
2022/09/05 03:37:32;;;;;;;0.15;0.15;;;;;;;;;;4145818;28;20504;-41
2022/09/05 03:39:45;;;;;;;0.20;0.20;;;;;;;;;;4130952;28;20057;-42
2022/09/05 03:42:05;;;;;;;0.20;0.20;;;;;;;;;;4129263;28;20062;-41
2022/09/05 03:44:26;;;;;;;0.20;0.20;;;;;;;;;;4138548;28;20058;-42
2022/09/05 03:47:15;;;;;;;0.10;0.10;;;;;;;;;;4146730;28;20104;-41
2022/09/05 03:49:28;;;;;;;0.10;0.10;;;;;;;;;;4144025;28;20062;-41
2022/09/05 03:51:30;;;;;;;0.20;0.17;;;;;;;;;;4145851;28;20061;-41
2022/09/05 03:54:07;;;;;;;0.10;0.10;;;;;;;;;;4128903;28;20054;-41
2022/09/05 03:56:45;;;;;;;0.20;0.20;;;;;;;;;;4146609;28;20081;-41
2022/09/05 03:59:24;;;;;;;0.10;0.10;;;;;;;;;;4146252;28;20112;-41
2022/09/05 04:01:34;;;;;;;0.20;0.20;;;;;;;;;;4127696;28;20557;-42
2022/09/05 04:03:46;;;;;;;0.20;0.20;;;;;;;;;;4144004;28;20054;-41
2022/09/05 04:05:55;;;;;;;0.10;0.10;;;;;;;;;;4146253;28;20058;-41
2022/09/05 04:08:08;;;;;;;0.28;0.20;;;;;;;;;;4144677;28;20072;-42
2022/09/05 04:10:27;;;;;;;0.60;0.17;;;;;;;;;;4144901;28;20493;-40
2022/09/05 04:12:39;;;;;;;0.20;0.20;;;;;;;;;;4144267;28;20414;-41
2022/09/05 04:14:47;;;;;;;1.88;0.20;;;;;;;;;;4146132;28;20104;-41
2022/09/05 04:16:51;;;;;;;0.43;0.20;;;;;;;;;;4145036;28;20524;-41
2022/09/05 04:19:17;;;;;;;0.20;0.20;;;;;;;;;;4144480;28;20058;-41
2022/09/05 04:21:24;;;;;;;0.20;0.10;;;;;;;;;;4128559;28;20061;-41
2022/09/05 04:23:43;;;;;;;0.70;0.30;;;;;;;;;;4144744;28;20066;-41
2022/09/05 04:26:12;;;;;;;0.20;0.20;;;;;;;;;;4133921;28;20572;-41
2022/09/05 04:28:47;;;;;;;0.47;0.20;;;;;;;;;;4147752;28;20058;-42
2022/09/05 04:30:56;;;;;;;0.55;0.20;;;;;;;;;;4147930;28;20466;-42
2022/09/05 04:33:44;;;;;;;0.85;0.20;;;;;;;;;;4147404;28;20050;-41
2022/09/05 04:36:14;;;;;;;0.40;0.28;;;;;;;;;;4146890;28;20054;-41
2022/09/05 04:38:18;;;;;;;0.52;0.32;;;;;;;;;;4147604;28;20173;-42
2022/09/05 04:40:29;;;;;;;0.10;0.10;;;;;;;;;;4146465;28;20449;-42
2022/09/05 04:42:30;;;;;;;0.47;0.30;;;;;;;;;;4147636;28;20413;-41
2022/09/05 04:44:33;;;;;;;0.20;0.20;;;;;;;;;;4130282;28;20050;-41
2022/09/05 04:46:39;;;;;;;0.35;0.20;;;;;;;;;;4147769;28;20100;-41
2022/09/05 04:48:44;;;;;;;0.40;0.30;;;;;;;;;;4145840;28;20058;-41
2022/09/05 04:51:03;;;;;;;0.20;0.20;;;;;;;;;;4147817;28;20096;-42
2022/09/05 04:53:39;;;;;;;0.20;0.20;;;;;;;;;;4147600;28;20061;-41
2022/09/05 04:55:46;;;;;;;0.20;0.20;;;;;;;;;;4145984;28;20410;-41
2022/09/05 04:57:51;;;;;;;0.20;0.20;;;;;;;;;;4147189;28;20489;-41
2022/09/05 04:59:58;;;;;;;0.20;0.20;;;;;;;;;;4147718;28;20058;-41
2022/09/05 05:02:04;;;;;;;0.20;0.20;;;;;;;;;;4129149;28;20509;-43
2022/09/05 05:04:14;;;;;;;0.15;0.15;;;;;;;;;;4143053;28;20573;-41
2022/09/05 05:06:28;;;;;;;0.20;0.20;;;;;;;;;;4143737;28;20492;-41
2022/09/05 05:08:45;;;;;;;0.30;0.20;;;;;;;;;;4143851;28;20513;-41
2022/09/05 05:10:51;;;;;;;0.25;0.20;;;;;;;;;;4129078;28;20105;-41
2022/09/05 05:13:09;;;;;;;0.22;0.20;;;;;;;;;;4127211;28;20058;-42
2022/09/05 05:15:15;;;;;;;0.30;0.30;;;;;;;;;;4144048;28;20061;-41
2022/09/05 05:17:38;;;;;;;0.40;0.30;;;;;;;;;;4128913;28;20403;-41
2022/09/05 05:19:44;;;;;;;0.20;0.20;;;;;;;;;;4127727;28;20438;-41
2022/09/05 05:21:49;;;;;;;0.20;0.17;;;;;;;;;;4129411;28;20058;-41
2022/09/05 05:23:56;;;;;;;0.30;0.20;;;;;;;;;;4111359;28;20058;-41
2022/09/05 05:25:59;;;;;;;0.60;0.20;;;;;;;;;;4127538;28;20062;-41
2022/09/05 05:28:11;;;;;;;0.20;0.20;;;;;;;;;;4150548;28;20054;-41
2022/09/05 05:30:23;;;;;;;0.20;0.20;;;;;;;;;;4143696;28;20565;-40
2022/09/05 05:32:29;;;;;;;0.30;0.30;;;;;;;;;;4158930;28;20339;-41
2022/09/05 05:34:47;;;;;;;0.20;0.20;;;;;;;;;;4143706;28;20096;-42
2022/09/05 05:36:56;;;;;;;0.30;0.20;;;;;;;;;;4144629;28;20061;-41
2022/09/05 05:39:15;;;;;;;0.38;0.30;;;;;;;;;;4141578;28;20061;-41
2022/09/05 05:41:23;;;;;;;0.30;0.30;;;;;;;;;;4136312;28;20062;-40
2022/09/05 05:43:32;;;;;;;0.30;0.28;;;;;;;;;;4135813;28;20049;-41
2022/09/05 05:45:33;;;;;;;0.30;0.30;;;;;;;;;;4135752;28;20058;-41
2022/09/05 05:47:42;;;;;;;0.10;0.10;;;;;;;;;;4136459;28;20140;-41
2022/09/05 05:49:52;;;;;;;0.40;0.25;;;;;;;;;;4132103;28;20054;-40
2022/09/05 05:52:02;;;;;;;0.30;0.25;;;;;;;;;;4130883;28;20058;-40
2022/09/05 05:54:12;;;;;;;0.30;0.30;;;;;;;;;;4131604;28;20494;-41
2022/09/05 05:56:24;;;;;;;0.25;0.25;;;;;;;;;;4132282;28;20446;-41
2022/09/05 05:58:47;;;;;;;0.32;0.30;;;;;;;;;;4131756;28;20128;-41
2022/09/05 06:00:54;;;;;;;0.25;0.20;;;;;;;;;;4138862;28;20052;-41
2022/09/05 06:03:25;;;;;;;0.20;0.20;;;;;;;;;;4133851;28;20133;-43
2022/09/05 06:05:34;;;;;;;0.40;0.20;;;;;;;;;;4128116;28;20053;-40
2022/09/05 06:08:06;;;;;;;1.10;0.35;;;;;;;;;;4122303;28;20863;-42
2022/09/05 06:10:23;;;;;;;0.30;0.30;;;;;;;;;;4121428;28;20116;-37
2022/09/05 06:12:39;;;;;;;0.30;0.30;;;;;;;;;;4126557;28;20065;-36
2022/09/05 06:15:12;;;;;;;0.40;0.25;;;;;;;;;;4119517;28;20054;-37
2022/09/05 06:17:49;;;;;;;0.55;0.22;;;;;;;;;;4117685;28;23565;-37
2022/09/05 06:20:28;;;;;;;0.30;0.20;;;;;;;;;;4119907;28;20494;-37
2022/09/05 06:22:44;;;;;;;0.52;0.25;;;;;;;;;;4116374;28;20128;-38
2022/09/05 06:24:45;;;;;;;0.40;0.20;;;;;;;;;;4129455;28;20143;-37
2022/09/05 06:27:07;;;;;;;0.50;0.20;;;;;;;;;;4108024;28;21697;-37
2022/09/05 06:29:32;;;;;;;0.50;0.20;;;;;;;;;;4114702;28;20092;-37
2022/09/05 06:32:00;;;;;;;0.55;0.20;;;;;;;;;;4108456;28;20084;-36
2022/09/05 06:34:34;;;;;;;1.75;0.30;;;;;;;;;;4122387;28;20065;-37
2022/09/05 06:36:49;;;;;;;0.25;0.25;;;;;;;;;;4116949;28;20062;-42
2022/09/05 06:39:15;;;;;;;1.00;0.30;;;;;;;;;;4122733;28;20544;-36
2022/09/05 06:41:44;;;;;;;2.00;0.30;;;;;;;;;;4120305;28;20489;-36
2022/09/05 06:44:12;;;;;;;0.20;0.20;;;;;;;;;;4123544;28;20116;-38
2022/09/05 06:46:33;;;;;;;0.28;0.28;;;;;;;;;;4128285;28;20057;-36
2022/09/05 06:48:51;;;;;;;0.95;0.40;;;;;;;;;;4129770;28;20054;-38
2022/09/05 06:51:19;;;;;;;0.40;0.20;;;;;;;;;;4118837;28;20474;-38
2022/09/05 06:53:53;;;;;;;0.20;0.10;;;;;;;;;;4114483;28;20434;-38
2022/09/05 06:56:01;;;;;;;0.75;0.20;;;;;;;;;;4119090;28;20061;-36
2022/09/05 06:58:11;;;;;;;0.60;0.40;;;;;;;;;;4116652;28;20061;-37
2022/09/05 07:00:12;;;;;;;;;;;;;;;;;;4123546;28;20108;-36
2022/09/05 07:02:36;;;;;;;0.65;0.20;;;;;;;;;;4120484;28;19995;-37
2022/09/05 07:04:42;;;;;;;0.50;0.30;;;;;;;;;;4114230;28;20579;-37
2022/09/05 07:06:59;;;;;;;2.60;0.22;;;;;;;;;;4106624;28;20061;-37
2022/09/05 07:09:56;;;;;;;1.33;0.40;;;;;;;;;;4101640;28;20557;-38
2022/09/05 07:12:12;;;;;;;4.97;0.25;;;;;;;;;;4088386;28;20061;-38
2022/09/05 07:14:25;;;;;;;0.82;0.20;;;;;;;;;;4104860;28;20069;-38
2022/09/05 07:16:37;;;;;;;0.52;0.28;;;;;;;;;;4106128;28;20216;-37
2022/09/05 07:18:58;;;;;;;1.58;0.20;;;;;;;;;;4115311;28;20053;-37
2022/09/05 07:21:06;;;;;;;1.10;0.20;;;;;;;;;;4113072;28;20053;-37
2022/09/05 07:23:16;;;;;;;1.27;0.30;;;;;;;;;;4113515;28;20082;-37
2022/09/05 07:25:19;;;;;;;1.30;0.20;;;;;;;;;;4119591;28;20505;-41
2022/09/05 07:27:48;;;;;;;0.20;0.20;;;;;;;;;;4115143;28;20689;-37
2022/09/05 07:29:54;;;;;;;1.55;0.22;;;;;;;;;;4119942;28;20061;-37
2022/09/05 07:31:56;;;;;;;1.75;0.28;;;;;;;;;;4110939;28;20065;-36
2022/09/05 07:34:10;;;;;;;0.98;0.20;;;;;;;;;;4115843;28;20442;-37
2022/09/05 07:36:17;;;;;;;2.03;0.35;;;;;;;;;;4112754;28;20061;-36
2022/09/05 07:38:27;;;;;;;0.20;0.20;;;;;;;;;;4122466;28;20140;-36
2022/09/05 07:40:32;;;;;;;0.17;0.10;;;;;;;;;;4118053;28;20073;-36
2022/09/05 07:43:03;;;;;;;0.55;0.22;;;;;;;;;;4112260;28;20057;-38
2022/09/05 07:45:09;;;;;;;0.22;0.13;;;;;;;;;;4114842;28;20171;-37
2022/09/05 07:47:20;;;;;;;0.52;0.20;;;;;;;;;;4117891;28;20426;-37
2022/09/05 07:49:26;;;;;;;0.80;0.30;;;;;;;;;;4098829;28;20513;-37
2022/09/05 07:51:33;;;;;;;0.28;0.20;;;;;;;;;;4121156;28;20123;-37
2022/09/05 07:53:36;;;;;;;0.60;0.40;;;;;;;;;;4113652;28;20565;-37
2022/09/05 07:55:40;;;;;;;0.40;0.17;;;;;;;;;;4091376;28;20529;-37
2022/09/05 07:57:42;;;;;;;1.05;0.20;;;;;;;;;;4121170;28;20108;-37
2022/09/05 07:59:45;;;;;;;2.33;0.30;;;;;;;;;;4120140;28;20058;-38
2022/09/05 08:01:49;;;;;;;2.22;0.40;;;;;;;;;;4095226;28;20066;-38
2022/09/05 08:03:54;;;;;;;1.15;0.50;;;;;;;;;;4101158;28;20076;-38
2022/09/05 08:05:59;;;;;;;0.40;0.30;;;;;;;;;;4124056;28;20054;-37
2022/09/05 08:08:01;;;;;;;1.05;0.35;;;;;;;;;;4112212;28;20058;-38
2022/09/05 08:10:16;;;;;;;4.10;0.45;;;;;;;;;;4107123;28;20492;-38
2022/09/05 08:12:34;;;;;;;2.75;0.35;;;;;;;;;;4108267;28;20163;-37
2022/09/05 08:15:05;;;;;;;0.57;0.32;;;;;;;;;;4112175;28;20145;-39
2022/09/05 08:17:11;;;;;;;1.25;0.30;;;;;;;;;;4097563;28;20062;-38
2022/09/05 08:19:34;;;;;;;5.20;0.30;;;;;;;;;;4117371;28;20060;-38
2022/09/05 08:21:45;;;;;;;0.82;0.20;;;;;;;;;;4099750;28;20077;-38
2022/09/05 08:24:22;;;;;;;0.63;0.30;;;;;;;;;;4116067;28;20056;-38
2022/09/05 08:26:28;;;;;;;1.08;0.17;;;;;;;;;;4107509;28;20057;-38
2022/09/05 08:28:52;;;;;;;1.15;0.30;;;;;;;;;;4104515;28;20054;-38
2022/09/05 08:31:26;;;;;;;2.00;0.30;;;;;;;;;;4113863;28;20144;-37
2022/09/05 08:33:32;;;;;;;0.60;0.30;;;;;;;;;;4105312;28;20054;-38
2022/09/05 08:35:45;;;;;;;1.20;0.30;;;;;;;;;;4113051;28;21212;-38
2022/09/05 08:37:49;;;;;;;1.55;0.20;;;;;;;;;;4107215;28;20100;-38
2022/09/05 08:39:52;;;;;;;0.40;0.30;;;;;;;;;;4110801;28;20120;-37
2022/09/05 08:42:24;;;;;;;0.85;0.40;;;;;;;;;;4106815;28;20057;-36
2022/09/05 08:44:49;;;;;;;0.45;0.20;;;;;;;;;;4111087;28;20766;-39
2022/09/05 08:47:03;;;;;;;2.33;0.30;;;;;;;;;;4101771;28;20135;-39
2022/09/05 08:49:29;;;;;;;2.70;0.38;;;;;;;;;;4107388;28;20064;-36
2022/09/05 08:51:54;;;;;;;7.65;0.88;;;;;;;;;;4104310;28;20053;-38
2022/09/05 08:54:17;;;;;;;1.85;0.30;;;;;;;;;;4108833;28;20108;-37
2022/09/05 08:56:22;;;;;;;1.92;0.30;;;;;;;;;;4097348;28;20144;-39
2022/09/05 08:58:26;;;;;;;2.08;0.20;;;;;;;;;;4105105;28;20117;-38
2022/09/05 09:00:34;;;;;;;3.90;0.20;;;;;;;;;;4095172;28;20370;-39
2022/09/05 09:03:10;;;;;;;2.83;0.65;;;;;;;;;;4092906;28;20605;-38
2022/09/05 09:05:29;;;;;;;4.00;0.57;;;;;;;;;;4116100;28;20147;-37
2022/09/05 09:07:35;;;;;;;0.47;0.20;;;;;;;;;;4112899;28;20570;-37
2022/09/05 09:09:55;;;;;;;0.20;0.20;;;;;;;;;;4112511;28;20108;-37
2022/09/05 09:12:13;;;;;;;1.77;0.10;;;;;;;;;;4115879;28;21248;-37
2022/09/05 09:14:36;;;;;;;0.43;0.17;;;;;;;;;;4103849;28;20489;-37
2022/09/05 09:16:46;;;;;;;0.30;0.22;;;;;;;;;;4118589;28;20369;-37
2022/09/05 09:18:47;;;;;;;0.77;0.32;;;;;;;;;;4112625;28;20760;-39
2022/09/05 09:20:54;;;;;;;0.88;0.17;;;;;;;;;;4098748;28;20054;-37
2022/09/05 09:23:20;;;;;;;1.05;0.17;;;;;;;;;;4106901;28;20061;-37
2022/09/05 09:26:04;;;;;;;3.42;0.40;;;;;;;;;;4128328;28;20159;-38
2022/09/05 09:28:27;;;;;;;2.08;0.20;;;;;;;;;;4121386;28;20058;-38
2022/09/05 09:30:29;;;;;;;2.78;0.35;;;;;;;;;;4107209;28;21054;-38
2022/09/05 09:32:40;;;;;;;2.63;0.30;;;;;;;;;;4093832;28;20065;-38
2022/09/05 09:34:59;;;;;;;0.60;0.30;;;;;;;;;;4099470;28;20055;-37
2022/09/05 09:37:13;;;;;;;1.25;0.10;;;;;;;;;;4115929;28;20403;-37
2022/09/05 09:39:43;;;;;;;2.47;0.20;;;;;;;;;;4121150;28;20108;-38
2022/09/05 09:42:05;;;;;;;0.32;0.20;;;;;;;;;;4116528;28;20575;-37
2022/09/05 09:44:45;;;;;;;0.73;0.20;;;;;;;;;;4116790;28;20065;-39
2022/09/05 09:46:48;;;;;;;0.40;0.30;;;;;;;;;;4122724;28;20049;-37
2022/09/05 09:48:49;;;;;;;1.65;0.28;;;;;;;;;;4120441;28;20387;-38
2022/09/05 09:51:29;;;;;;;1.45;0.20;;;;;;;;;;4120421;28;20135;-38
2022/09/05 09:54:04;;;;;;;3.90;0.20;;;;;;;;;;4115815;28;20826;-37
2022/09/05 09:56:31;;;;;;;0.22;0.10;;;;;;;;;;4122044;28;20053;-39
2022/09/05 09:58:53;;;;;;;0.32;0.20;;;;;;;;;;4124408;28;20061;-39
2022/09/05 10:01:07;;;;;;;2.20;0.20;;;;;;;;;;4113396;28;20668;-37
2022/09/05 10:03:41;;;;;;;0.30;0.20;;;;;;;;;;4114442;28;20144;-38
2022/09/05 10:05:58;;;;;;;2.08;0.32;;;;;;;;;;4128404;28;20179;-38
2022/09/05 10:08:42;;;;;;;0.30;0.28;;;;;;;;;;4119681;28;20469;-37
2022/09/05 10:11:26;;;;;;;1.75;0.20;;;;;;;;;;4123762;28;20061;-38
2022/09/05 10:13:46;;;;;;;1.08;0.20;;;;;;;;;;4120285;28;20053;-38
2022/09/05 10:16:00;;;;;;;;;;;;;;;;;;4118177;28;20058;-38
2022/09/05 10:18:22;;;;;;;1.25;0.30;;;;;;;;;;4123949;28;19984;-40
2022/09/05 10:20:46;;;;;;;1.67;0.20;;;;;;;;;;4128440;28;20632;-38
2022/09/05 10:22:59;;;;;;;0.20;0.13;;;;;;;;;;4119502;28;20136;-37
2022/09/05 10:25:24;;;;;;;1.35;0.25;;;;;;;;;;4116712;28;20100;-39
2022/09/05 10:27:35;;;;;;;0.50;0.20;;;;;;;;;;4112136;28;20160;-39
2022/09/05 10:30:02;;;;;;;1.02;0.20;;;;;;;;;;4120210;28;20135;-38
2022/09/05 10:32:12;;;;;;;0.95;0.20;;;;;;;;;;4102540;28;20554;-39
2022/09/05 10:34:17;;;;;;;0.32;0.20;;;;;;;;;;4114162;28;20101;-38
2022/09/05 10:36:25;;;;;;;0.35;0.30;;;;;;;;;;4110867;28;20816;-37
2022/09/05 10:38:51;;;;;;;0.47;0.15;;;;;;;;;;4114302;28;20100;-38
2022/09/05 10:40:54;;;;;;;0.57;0.25;;;;;;;;;;4107465;28;20682;-38
2022/09/05 10:43:01;;;;;;;0.25;0.17;;;;;;;;;;4121750;28;20065;-39
2022/09/05 10:45:04;;;;;;;1.02;0.70;;;;;;;;;;4118480;28;20061;-38
2022/09/05 10:47:42;;;;;;;0.63;0.28;;;;;;;;;;4129000;28;20053;-38
2022/09/05 10:49:48;;;;;;;0.32;0.20;;;;;;;;;;4120773;28;20640;-38
2022/09/05 10:52:00;;;;;;;1.27;0.40;;;;;;;;;;4124844;28;20057;-37
2022/09/05 10:54:17;;;;;;;0.40;0.17;;;;;;;;;;4117923;28;20117;-37
2022/09/05 10:56:23;;;;;;;1.30;0.22;;;;;;;;;;4138141;28;20103;-38
2022/09/05 10:58:40;;;;;;;0.40;0.30;;;;;;;;;;4117834;28;20583;-39
2022/09/05 11:00:50;;;;;;;0.28;0.28;;;;;;;;;;4101967;28;20084;-38
2022/09/05 11:02:55;;;;;;;2.45;0.30;;;;;;;;;;4112384;28;20101;-38
2022/09/05 11:05:06;;;;;;;0.60;0.22;;;;;;;;;;4106967;28;20128;-38
2022/09/05 11:07:17;;;;;;;2.03;0.25;;;;;;;;;;4122338;28;20065;-38
2022/09/05 11:09:31;;;;;;;0.25;0.20;;;;;;;;;;4127573;28;20057;-39
2022/09/05 11:11:44;;;;;;;0.50;0.28;;;;;;;;;;4127099;28;20053;-37
2022/09/05 11:13:48;;;;;;;0.50;0.30;;;;;;;;;;4123222;28;20450;-37
2022/09/05 11:16:17;;;;;;;0.20;0.20;;;;;;;;;;4122593;28;20139;-35
2022/09/05 11:18:39;;;;;;;0.20;0.20;;;;;;;;;;4125096;28;20129;-37
2022/09/05 11:20:59;;;;;;;1.60;0.25;;;;;;;;;;4137238;28;20053;-37
2022/09/05 11:23:04;;;;;;;1.80;0.40;;;;;;;;;;4119035;28;20097;-36
2022/09/05 11:25:17;;;;;;;0.95;0.20;;;;;;;;;;4121363;28;23286;-36
2022/09/05 11:27:24;;;;;;;0.52;0.22;;;;;;;;;;4116788;28;20053;-36
2022/09/05 11:29:47;;;;;;;0.75;0.38;;;;;;;;;;4119204;28;20058;-36
2022/09/05 11:31:48;;;;;;;0.60;0.20;;;;;;;;;;4114964;28;20053;-36
2022/09/05 11:34:09;;;;;;;1.85;0.30;;;;;;;;;;4115389;28;20978;-37
2022/09/05 11:36:17;;;;;;;0.55;0.28;;;;;;;;;;4112516;28;20512;-37
2022/09/05 11:38:25;;;;;;;0.50;0.30;;;;;;;;;;4110474;28;20057;-38
2022/09/05 11:40:54;;;;;;;0.52;0.20;;;;;;;;;;4128478;28;20088;-37
2022/09/05 11:43:26;;;;;;;0.22;0.20;;;;;;;;;;4116900;28;20058;-36
2022/09/05 11:45:47;;;;;;;0.32;0.10;;;;;;;;;;4121131;28;20152;-35
2022/09/05 11:47:57;;;;;;;0.45;0.20;;;;;;;;;;4112875;28;20061;-36
2022/09/05 11:50:01;;;;;;;;;;;;;;;;;;4124101;28;20065;-36
2022/09/05 11:52:20;;;;;;;2.22;0.45;;;;;;;;;;4116695;28;19929;-36
2022/09/05 11:54:44;;;;;;;0.87;0.43;;;;;;;;;;4108978;28;20049;-38
2022/09/05 11:57:23;;;;;;;0.25;0.20;;;;;;;;;;4119835;28;20515;-34
2022/09/05 11:59:35;;;;;;;2.22;0.30;;;;;;;;;;4114922;28;20734;-35
2022/09/05 12:02:00;;;;;;;2.42;0.30;;;;;;;;;;4119383;28;20140;-36
2022/09/05 12:04:31;;;;;;;0.30;0.30;;;;;;;;;;4119836;28;20124;-35
2022/09/05 12:06:44;;;;;;;0.10;0.10;;;;;;;;;;4117472;28;20108;-36
2022/09/05 12:09:09;;;;;;;1.35;0.20;;;;;;;;;;4119700;28;20069;-36
2022/09/05 12:11:22;;;;;;;2.42;0.40;;;;;;;;;;4120942;28;20700;-35
2022/09/05 12:13:36;;;;;;;1.85;0.10;;;;;;;;;;4114513;28;20062;-35
2022/09/05 12:15:43;;;;;;;2.05;0.30;;;;;;;;;;4117633;28;20544;-37
2022/09/05 12:18:21;;;;;;;1.10;0.30;;;;;;;;;;4120847;28;20058;-37
2022/09/05 12:20:23;;;;;;;0.10;0.10;;;;;;;;;;4123034;28;20057;-36
2022/09/05 12:22:32;;;;;;;0.38;0.20;;;;;;;;;;4117865;28;20066;-37
2022/09/05 12:25:10;;;;;;;0.70;0.30;;;;;;;;;;4118070;28;20050;-37
2022/09/05 12:27:14;;;;;;;0.10;0.10;;;;;;;;;;4124757;28;20081;-37
2022/09/05 12:29:18;;;;;;;0.25;0.20;;;;;;;;;;4106728;28;20278;-37
2022/09/05 12:31:31;;;;;;;0.47;0.20;;;;;;;;;;4121229;28;20057;-36
2022/09/05 12:33:33;;;;;;;0.52;0.10;;;;;;;;;;4119582;28;20154;-36
2022/09/05 12:36:10;;;;;;;1.40;0.10;;;;;;;;;;4120781;28;20498;-37
2022/09/05 12:38:34;;;;;;;0.57;0.38;;;;;;;;;;4131002;28;20061;-36
2022/09/05 12:40:37;;;;;;;1.27;0.22;;;;;;;;;;4111543;28;21954;-36
2022/09/05 12:43:00;;;;;;;2.35;0.20;;;;;;;;;;4125858;28;20540;-37
2022/09/05 12:45:15;;;;;;;3.88;0.40;;;;;;;;;;4121971;28;20141;-36
2022/09/05 12:47:19;;;;;;;0.52;0.20;;;;;;;;;;4123332;28;20049;-37
2022/09/05 12:49:34;;;;;;;2.22;0.32;;;;;;;;;;4124964;28;20092;-38
2022/09/05 12:51:42;;;;;;;0.30;0.20;;;;;;;;;;4115968;28;20061;-36
2022/09/05 12:53:52;;;;;;;0.35;0.20;;;;;;;;;;4116348;28;21033;-36
2022/09/05 12:56:02;;;;;;;0.55;0.20;;;;;;;;;;4122548;28;20218;-38
2022/09/05 12:58:31;;;;;;;1.75;0.15;;;;;;;;;;4096328;28;20058;-38
2022/09/05 13:00:54;;;;;;;1.80;0.40;;;;;;;;;;4113461;28;20061;-38
2022/09/05 13:02:59;;;;;;;0.57;0.20;;;;;;;;;;4111335;28;20675;-36
2022/09/05 13:05:11;;;;;;;0.40;0.20;;;;;;;;;;4116167;28;20065;-39
2022/09/05 13:07:17;;;;;;;0.55;0.10;;;;;;;;;;4120707;28;20180;-38
2022/09/05 13:09:36;;;;;;;0.28;0.20;;;;;;;;;;4128203;28;20054;-38
2022/09/05 13:12:02;;;;;;;1.38;0.60;;;;;;;;;;4122551;28;20115;-37
2022/09/05 13:14:07;;;;;;;0.60;0.15;;;;;;;;;;4119184;28;20076;-38
2022/09/05 13:16:08;;;;;;;0.20;0.20;;;;;;;;;;4102206;28;20527;-37
2022/09/05 13:18:16;;;;;;;1.63;0.30;;;;;;;;;;4121965;28;20402;-38
2022/09/05 13:20:32;;;;;;;1.00;0.28;;;;;;;;;;4127826;28;20076;-38
2022/09/05 13:22:37;;;;;;;1.83;0.20;;;;;;;;;;4128504;28;20828;-37
2022/09/05 13:24:40;;;;;;;0.57;0.10;;;;;;;;;;4126866;28;21256;-38
2022/09/05 13:26:53;;;;;;;1.27;0.20;;;;;;;;;;4131096;28;20120;-38
2022/09/05 13:28:57;;;;;;;0.95;0.30;;;;;;;;;;4117436;28;20422;-38
2022/09/05 13:31:06;;;;;;;0.50;0.30;;;;;;;;;;4113680;28;20404;-40
2022/09/05 13:33:18;;;;;;;0.20;0.10;;;;;;;;;;4124974;28;20072;-40
2022/09/05 13:35:24;;;;;;;0.65;0.20;;;;;;;;;;4126939;28;20053;-39
2022/09/05 13:37:33;;;;;;;0.20;0.10;;;;;;;;;;4130940;28;20469;-39
2022/09/05 13:39:42;;;;;;;0.28;0.20;;;;;;;;;;4111952;28;20054;-39